sensor_id;sensor_type;location;lat;lon;timestamp;P1;durP1;ratioP1;P2;durP2;ratioP2
18818;SDS011;9537;45.594;9.294;2023-03-23T00:00:17;18.93;;;11.57;;
18818;SDS011;9537;45.594;9.294;2023-03-23T00:01:20;18.07;;;10.67;;
18818;SDS011;9537;45.594;9.294;2023-03-23T00:02:25;16.13;;;10.43;;
18818;SDS011;9537;45.594;9.294;2023-03-23T00:03:27;14.40;;;10.30;;
18818;SDS011;9537;45.594;9.294;2023-03-23T00:04:32;14.60;;;10.47;;
18818;SDS011;9537;45.594;9.294;2023-03-23T00:05:33;18.70;;;11.83;;
18818;SDS011;9537;45.594;9.294;2023-03-23T00:06:37;16.87;;;10.43;;
18818;SDS011;9537;45.594;9.294;2023-03-23T00:07:38;15.30;;;10.33;;
18818;SDS011;9537;45.594;9.294;2023-03-23T00:08:47;14.87;;;10.77;;
18818;SDS011;9537;45.594;9.294;2023-03-23T00:09:50;17.20;;;10.70;;
18818;SDS011;9537;45.594;9.294;2023-03-23T00:10:54;17.33;;;10.80;;
18818;SDS011;9537;45.594;9.294;2023-03-23T00:11:57;14.53;;;11.00;;
18818;SDS011;9537;45.594;9.294;2023-03-23T00:13:05;15.47;;;10.63;;
18818;SDS011;9537;45.594;9.294;2023-03-23T00:14:06;13.07;;;10.07;;
18818;SDS011;9537;45.594;9.294;2023-03-23T00:15:13;15.60;;;10.30;;
18818;SDS011;9537;45.594;9.294;2023-03-23T00:16:17;16.53;;;10.30;;
18818;SDS011;9537;45.594;9.294;2023-03-23T00:17:20;14.73;;;11.23;;
18818;SDS011;9537;45.594;9.294;2023-03-23T00:18:23;16.63;;;11.13;;
18818;SDS011;9537;45.594;9.294;2023-03-23T00:19:26;14.67;;;10.23;;
18818;SDS011;9537;45.594;9.294;2023-03-23T00:20:26;15.27;;;10.07;;
18818;SDS011;9537;45.594;9.294;2023-03-23T00:21:40;15.57;;;10.70;;
18818;SDS011;9537;45.594;9.294;2023-03-23T00:22:42;16.43;;;10.10;;
18818;SDS011;9537;45.594;9.294;2023-03-23T00:23:44;17.43;;;11.10;;
18818;SDS011;9537;45.594;9.294;2023-03-23T00:24:47;17.67;;;11.03;;
18818;SDS011;9537;45.594;9.294;2023-03-23T00:25:51;14.57;;;9.87;;
18818;SDS011;9537;45.594;9.294;2023-03-23T00:26:53;15.67;;;10.67;;
18818;SDS011;9537;45.594;9.294;2023-03-23T00:27:59;16.97;;;11.07;;
18818;SDS011;9537;45.594;9.294;2023-03-23T00:29:01;14.97;;;10.70;;
18818;SDS011;9537;45.594;9.294;2023-03-23T00:30:03;18.83;;;9.67;;
18818;SDS011;9537;45.594;9.294;2023-03-23T00:31:06;17.17;;;10.07;;
18818;SDS011;9537;45.594;9.294;2023-03-23T00:32:11;13.13;;;9.53;;
18818;SDS011;9537;45.594;9.294;2023-03-23T00:33:14;15.63;;;10.30;;
18818;SDS011;9537;45.594;9.294;2023-03-23T00:34:17;14.20;;;10.17;;
18818;SDS011;9537;45.594;9.294;2023-03-23T00:35:19;15.57;;;10.50;;
18818;SDS011;9537;45.594;9.294;2023-03-23T00:36:21;15.83;;;10.57;;
18818;SDS011;9537;45.594;9.294;2023-03-23T00:37:23;14.93;;;10.30;;
18818;SDS011;9537;45.594;9.294;2023-03-23T00:38:25;16.37;;;11.50;;
18818;SDS011;9537;45.594;9.294;2023-03-23T00:39:27;14.50;;;10.57;;
18818;SDS011;9537;45.594;9.294;2023-03-23T00:40:31;16.10;;;10.97;;
18818;SDS011;9537;45.594;9.294;2023-03-23T00:41:35;19.80;;;11.30;;
18818;SDS011;9537;45.594;9.294;2023-03-23T00:42:38;14.67;;;10.63;;
18818;SDS011;9537;45.594;9.294;2023-03-23T00:43:39;14.67;;;10.23;;
18818;SDS011;9537;45.594;9.294;2023-03-23T00:44:42;14.40;;;10.20;;
18818;SDS011;9537;45.594;9.294;2023-03-23T00:45:43;16.83;;;9.77;;
18818;SDS011;9537;45.594;9.294;2023-03-23T00:46:49;18.87;;;11.20;;
18818;SDS011;9537;45.594;9.294;2023-03-23T00:47:50;14.20;;;9.77;;
18818;SDS011;9537;45.594;9.294;2023-03-23T00:48:52;19.00;;;10.73;;
18818;SDS011;9537;45.594;9.294;2023-03-23T00:49:53;17.17;;;10.67;;
18818;SDS011;9537;45.594;9.294;2023-03-23T00:50:57;17.80;;;10.37;;
18818;SDS011;9537;45.594;9.294;2023-03-23T00:51:58;16.70;;;10.70;;
18818;SDS011;9537;45.594;9.294;2023-03-23T00:53:00;18.87;;;11.20;;
18818;SDS011;9537;45.594;9.294;2023-03-23T00:54:01;15.07;;;9.90;;
18818;SDS011;9537;45.594;9.294;2023-03-23T00:55:03;16.67;;;10.37;;
18818;SDS011;9537;45.594;9.294;2023-03-23T00:56:06;16.40;;;11.10;;
18818;SDS011;9537;45.594;9.294;2023-03-23T00:57:09;15.63;;;10.60;;
18818;SDS011;9537;45.594;9.294;2023-03-23T00:58:10;14.47;;;10.37;;
18818;SDS011;9537;45.594;9.294;2023-03-23T00:59:13;14.57;;;10.47;;
18818;SDS011;9537;45.594;9.294;2023-03-23T01:00:15;14.07;;;10.63;;
18818;SDS011;9537;45.594;9.294;2023-03-23T01:01:17;14.30;;;10.07;;
18818;SDS011;9537;45.594;9.294;2023-03-23T01:02:18;17.23;;;11.40;;
18818;SDS011;9537;45.594;9.294;2023-03-23T01:03:25;15.13;;;10.77;;
18818;SDS011;9537;45.594;9.294;2023-03-23T01:04:28;16.50;;;10.53;;
18818;SDS011;9537;45.594;9.294;2023-03-23T01:05:33;13.93;;;10.53;;
18818;SDS011;9537;45.594;9.294;2023-03-23T01:06:35;16.00;;;10.00;;
18818;SDS011;9537;45.594;9.294;2023-03-23T01:07:39;13.40;;;9.80;;
18818;SDS011;9537;45.594;9.294;2023-03-23T01:08:40;13.70;;;9.67;;
18818;SDS011;9537;45.594;9.294;2023-03-23T01:09:45;14.80;;;10.27;;
18818;SDS011;9537;45.594;9.294;2023-03-23T01:10:46;14.40;;;10.53;;
18818;SDS011;9537;45.594;9.294;2023-03-23T01:11:50;15.23;;;10.60;;
18818;SDS011;9537;45.594;9.294;2023-03-23T01:12:52;14.90;;;10.53;;
18818;SDS011;9537;45.594;9.294;2023-03-23T01:13:54;22.67;;;10.90;;
18818;SDS011;9537;45.594;9.294;2023-03-23T01:14:55;16.43;;;10.47;;
18818;SDS011;9537;45.594;9.294;2023-03-23T01:15:57;15.73;;;11.03;;
18818;SDS011;9537;45.594;9.294;2023-03-23T01:16:58;14.27;;;10.87;;
18818;SDS011;9537;45.594;9.294;2023-03-23T01:18:00;14.97;;;10.73;;
18818;SDS011;9537;45.594;9.294;2023-03-23T01:19:01;19.47;;;10.90;;
18818;SDS011;9537;45.594;9.294;2023-03-23T01:20:04;13.13;;;10.07;;
18818;SDS011;9537;45.594;9.294;2023-03-23T01:21:07;17.53;;;10.47;;
18818;SDS011;9537;45.594;9.294;2023-03-23T01:22:10;13.77;;;9.87;;
18818;SDS011;9537;45.594;9.294;2023-03-23T01:23:11;16.10;;;10.03;;
18818;SDS011;9537;45.594;9.294;2023-03-23T01:24:13;15.90;;;11.17;;
18818;SDS011;9537;45.594;9.294;2023-03-23T01:25:14;15.30;;;10.93;;
18818;SDS011;9537;45.594;9.294;2023-03-23T01:26:19;13.97;;;10.60;;
18818;SDS011;9537;45.594;9.294;2023-03-23T01:27:22;15.53;;;10.30;;
18818;SDS011;9537;45.594;9.294;2023-03-23T01:28:24;14.13;;;9.67;;
18818;SDS011;9537;45.594;9.294;2023-03-23T01:29:26;19.60;;;10.93;;
18818;SDS011;9537;45.594;9.294;2023-03-23T01:30:28;15.20;;;10.57;;
18818;SDS011;9537;45.594;9.294;2023-03-23T01:31:29;18.17;;;10.57;;
18818;SDS011;9537;45.594;9.294;2023-03-23T01:32:31;15.07;;;10.37;;
18818;SDS011;9537;45.594;9.294;2023-03-23T01:33:32;20.00;;;10.73;;
18818;SDS011;9537;45.594;9.294;2023-03-23T01:34:34;17.67;;;11.13;;
18818;SDS011;9537;45.594;9.294;2023-03-23T01:35:37;13.87;;;10.03;;
18818;SDS011;9537;45.594;9.294;2023-03-23T01:36:39;14.67;;;10.43;;
18818;SDS011;9537;45.594;9.294;2023-03-23T01:37:41;16.63;;;10.93;;
18818;SDS011;9537;45.594;9.294;2023-03-23T01:38:43;15.60;;;10.13;;
18818;SDS011;9537;45.594;9.294;2023-03-23T01:39:47;12.73;;;10.07;;
18818;SDS011;9537;45.594;9.294;2023-03-23T01:40:48;18.70;;;11.33;;
18818;SDS011;9537;45.594;9.294;2023-03-23T01:41:50;14.07;;;10.17;;
18818;SDS011;9537;45.594;9.294;2023-03-23T01:42:52;19.83;;;10.60;;
18818;SDS011;9537;45.594;9.294;2023-03-23T01:43:55;17.17;;;10.40;;
18818;SDS011;9537;45.594;9.294;2023-03-23T01:45:20;13.20;;;9.70;;
18818;SDS011;9537;45.594;9.294;2023-03-23T01:46:26;16.40;;;9.87;;
18818;SDS011;9537;45.594;9.294;2023-03-23T01:47:28;15.33;;;10.13;;
18818;SDS011;9537;45.594;9.294;2023-03-23T01:48:31;16.80;;;10.77;;
18818;SDS011;9537;45.594;9.294;2023-03-23T01:49:36;13.83;;;10.17;;
18818;SDS011;9537;45.594;9.294;2023-03-23T01:50:43;14.40;;;10.20;;
18818;SDS011;9537;45.594;9.294;2023-03-23T01:51:54;16.47;;;10.03;;
18818;SDS011;9537;45.594;9.294;2023-03-23T01:52:58;14.73;;;9.50;;
18818;SDS011;9537;45.594;9.294;2023-03-23T01:54:04;15.77;;;10.33;;
18818;SDS011;9537;45.594;9.294;2023-03-23T01:55:09;14.37;;;10.40;;
18818;SDS011;9537;45.594;9.294;2023-03-23T01:56:10;14.03;;;10.53;;
18818;SDS011;9537;45.594;9.294;2023-03-23T01:57:16;14.60;;;10.43;;
18818;SDS011;9537;45.594;9.294;2023-03-23T01:58:21;14.03;;;10.40;;
18818;SDS011;9537;45.594;9.294;2023-03-23T01:59:29;16.50;;;11.17;;
18818;SDS011;9537;45.594;9.294;2023-03-23T02:00:32;12.97;;;9.97;;
18818;SDS011;9537;45.594;9.294;2023-03-23T02:01:34;18.07;;;10.43;;
18818;SDS011;9537;45.594;9.294;2023-03-23T02:02:39;16.87;;;9.93;;
18818;SDS011;9537;45.594;9.294;2023-03-23T02:03:44;14.87;;;9.67;;
18818;SDS011;9537;45.594;9.294;2023-03-23T02:04:49;16.33;;;10.13;;
18818;SDS011;9537;45.594;9.294;2023-03-23T02:05:51;15.73;;;10.13;;
18818;SDS011;9537;45.594;9.294;2023-03-23T02:06:53;15.97;;;10.57;;
18818;SDS011;9537;45.594;9.294;2023-03-23T02:07:58;13.10;;;9.23;;
18818;SDS011;9537;45.594;9.294;2023-03-23T02:09:03;17.03;;;10.47;;
18818;SDS011;9537;45.594;9.294;2023-03-23T02:10:09;15.03;;;10.43;;
18818;SDS011;9537;45.594;9.294;2023-03-23T02:11:13;17.37;;;10.40;;
18818;SDS011;9537;45.594;9.294;2023-03-23T02:12:16;16.53;;;10.50;;
18818;SDS011;9537;45.594;9.294;2023-03-23T02:13:17;15.00;;;10.07;;
18818;SDS011;9537;45.594;9.294;2023-03-23T02:14:20;14.40;;;10.20;;
18818;SDS011;9537;45.594;9.294;2023-03-23T02:15:23;14.97;;;10.10;;
18818;SDS011;9537;45.594;9.294;2023-03-23T02:16:31;13.87;;;9.77;;
18818;SDS011;9537;45.594;9.294;2023-03-23T02:17:38;15.97;;;9.87;;
18818;SDS011;9537;45.594;9.294;2023-03-23T02:18:50;16.47;;;10.20;;
18818;SDS011;9537;45.594;9.294;2023-03-23T02:20:07;15.30;;;10.00;;
18818;SDS011;9537;45.594;9.294;2023-03-23T02:23:05;15.10;;;10.57;;
18818;SDS011;9537;45.594;9.294;2023-03-23T02:26:14;16.10;;;9.93;;
18818;SDS011;9537;45.594;9.294;2023-03-23T02:29:28;16.40;;;9.77;;
18818;SDS011;9537;45.594;9.294;2023-03-23T02:30:49;14.17;;;8.80;;
18818;SDS011;9537;45.594;9.294;2023-03-23T02:32:08;17.10;;;9.10;;
18818;SDS011;9537;45.594;9.294;2023-03-23T02:33:33;17.63;;;10.03;;
18818;SDS011;9537;45.594;9.294;2023-03-23T02:34:46;15.13;;;9.53;;
18818;SDS011;9537;45.594;9.294;2023-03-23T02:35:52;13.33;;;9.30;;
18818;SDS011;9537;45.594;9.294;2023-03-23T02:36:58;17.87;;;10.00;;
18818;SDS011;9537;45.594;9.294;2023-03-23T02:38:05;14.97;;;9.33;;
18818;SDS011;9537;45.594;9.294;2023-03-23T02:39:10;17.50;;;9.07;;
18818;SDS011;9537;45.594;9.294;2023-03-23T02:40:15;16.27;;;9.67;;
18818;SDS011;9537;45.594;9.294;2023-03-23T02:41:22;14.70;;;9.40;;
18818;SDS011;9537;45.594;9.294;2023-03-23T02:42:28;15.77;;;9.97;;
18818;SDS011;9537;45.594;9.294;2023-03-23T02:43:33;15.07;;;10.10;;
18818;SDS011;9537;45.594;9.294;2023-03-23T02:44:41;14.87;;;9.23;;
18818;SDS011;9537;45.594;9.294;2023-03-23T02:45:45;14.10;;;9.90;;
18818;SDS011;9537;45.594;9.294;2023-03-23T02:46:47;14.63;;;9.37;;
18818;SDS011;9537;45.594;9.294;2023-03-23T02:47:51;14.13;;;9.07;;
18818;SDS011;9537;45.594;9.294;2023-03-23T02:48:56;12.60;;;9.47;;
18818;SDS011;9537;45.594;9.294;2023-03-23T02:50:00;16.43;;;9.23;;
18818;SDS011;9537;45.594;9.294;2023-03-23T02:51:05;13.30;;;9.30;;
18818;SDS011;9537;45.594;9.294;2023-03-23T02:52:10;13.70;;;8.77;;
18818;SDS011;9537;45.594;9.294;2023-03-23T02:53:16;15.30;;;9.93;;
18818;SDS011;9537;45.594;9.294;2023-03-23T02:54:21;12.50;;;9.40;;
18818;SDS011;9537;45.594;9.294;2023-03-23T02:55:26;13.97;;;9.50;;
18818;SDS011;9537;45.594;9.294;2023-03-23T02:56:29;16.03;;;9.90;;
18818;SDS011;9537;45.594;9.294;2023-03-23T02:57:33;13.63;;;9.77;;
18818;SDS011;9537;45.594;9.294;2023-03-23T02:58:35;13.77;;;9.00;;
18818;SDS011;9537;45.594;9.294;2023-03-23T02:59:38;15.20;;;9.77;;
18818;SDS011;9537;45.594;9.294;2023-03-23T03:00:40;14.57;;;10.03;;
18818;SDS011;9537;45.594;9.294;2023-03-23T03:01:47;16.13;;;9.50;;
18818;SDS011;9537;45.594;9.294;2023-03-23T03:02:54;14.43;;;9.37;;
18818;SDS011;9537;45.594;9.294;2023-03-23T03:03:59;14.67;;;9.30;;
18818;SDS011;9537;45.594;9.294;2023-03-23T03:05:05;14.37;;;9.67;;
18818;SDS011;9537;45.594;9.294;2023-03-23T03:06:23;14.20;;;9.97;;
18818;SDS011;9537;45.594;9.294;2023-03-23T03:07:33;14.83;;;9.40;;
18818;SDS011;9537;45.594;9.294;2023-03-23T03:08:48;12.40;;;8.90;;
18818;SDS011;9537;45.594;9.294;2023-03-23T03:09:54;15.13;;;9.40;;
18818;SDS011;9537;45.594;9.294;2023-03-23T03:11:01;13.63;;;9.13;;
18818;SDS011;9537;45.594;9.294;2023-03-23T03:12:08;16.73;;;9.83;;
18818;SDS011;9537;45.594;9.294;2023-03-23T03:13:19;12.97;;;7.97;;
18818;SDS011;9537;45.594;9.294;2023-03-23T03:14:29;13.13;;;8.60;;
18818;SDS011;9537;45.594;9.294;2023-03-23T03:15:37;16.17;;;9.20;;
18818;SDS011;9537;45.594;9.294;2023-03-23T03:16:44;13.60;;;9.23;;
18818;SDS011;9537;45.594;9.294;2023-03-23T03:17:51;14.43;;;9.27;;
18818;SDS011;9537;45.594;9.294;2023-03-23T03:19:02;13.50;;;9.10;;
18818;SDS011;9537;45.594;9.294;2023-03-23T03:20:07;13.47;;;8.80;;
18818;SDS011;9537;45.594;9.294;2023-03-23T03:21:12;12.60;;;9.07;;
18818;SDS011;9537;45.594;9.294;2023-03-23T03:22:17;13.83;;;9.77;;
18818;SDS011;9537;45.594;9.294;2023-03-23T03:23:22;13.67;;;9.80;;
18818;SDS011;9537;45.594;9.294;2023-03-23T03:24:27;13.63;;;9.20;;
18818;SDS011;9537;45.594;9.294;2023-03-23T03:25:29;13.73;;;9.27;;
18818;SDS011;9537;45.594;9.294;2023-03-23T03:26:32;14.73;;;9.47;;
18818;SDS011;9537;45.594;9.294;2023-03-23T03:27:34;14.90;;;9.87;;
18818;SDS011;9537;45.594;9.294;2023-03-23T03:28:36;16.70;;;9.87;;
18818;SDS011;9537;45.594;9.294;2023-03-23T03:29:38;13.33;;;9.37;;
18818;SDS011;9537;45.594;9.294;2023-03-23T03:30:42;14.10;;;9.70;;
18818;SDS011;9537;45.594;9.294;2023-03-23T03:31:50;15.40;;;9.40;;
18818;SDS011;9537;45.594;9.294;2023-03-23T03:32:56;15.13;;;9.43;;
18818;SDS011;9537;45.594;9.294;2023-03-23T03:33:57;15.00;;;9.27;;
18818;SDS011;9537;45.594;9.294;2023-03-23T03:35:02;14.27;;;9.17;;
18818;SDS011;9537;45.594;9.294;2023-03-23T03:36:04;14.97;;;10.07;;
18818;SDS011;9537;45.594;9.294;2023-03-23T03:37:09;15.43;;;10.20;;
18818;SDS011;9537;45.594;9.294;2023-03-23T03:38:12;13.47;;;10.47;;
18818;SDS011;9537;45.594;9.294;2023-03-23T03:39:14;17.23;;;10.13;;
18818;SDS011;9537;45.594;9.294;2023-03-23T03:40:18;16.33;;;9.77;;
18818;SDS011;9537;45.594;9.294;2023-03-23T03:41:22;17.40;;;10.93;;
18818;SDS011;9537;45.594;9.294;2023-03-23T03:42:23;17.87;;;10.87;;
18818;SDS011;9537;45.594;9.294;2023-03-23T03:43:25;15.27;;;9.90;;
18818;SDS011;9537;45.594;9.294;2023-03-23T03:44:26;19.23;;;9.67;;
18818;SDS011;9537;45.594;9.294;2023-03-23T03:45:28;14.27;;;10.80;;
18818;SDS011;9537;45.594;9.294;2023-03-23T03:46:30;17.67;;;10.23;;
18818;SDS011;9537;45.594;9.294;2023-03-23T03:47:32;14.23;;;9.97;;
18818;SDS011;9537;45.594;9.294;2023-03-23T03:48:33;14.53;;;10.10;;
18818;SDS011;9537;45.594;9.294;2023-03-23T03:49:35;17.53;;;10.07;;
18818;SDS011;9537;45.594;9.294;2023-03-23T03:50:38;18.07;;;10.33;;
18818;SDS011;9537;45.594;9.294;2023-03-23T03:51:40;17.50;;;9.87;;
18818;SDS011;9537;45.594;9.294;2023-03-23T03:52:41;15.97;;;10.00;;
18818;SDS011;9537;45.594;9.294;2023-03-23T03:53:44;16.13;;;10.10;;
18818;SDS011;9537;45.594;9.294;2023-03-23T03:54:45;14.70;;;9.53;;
18818;SDS011;9537;45.594;9.294;2023-03-23T03:55:47;16.10;;;10.20;;
18818;SDS011;9537;45.594;9.294;2023-03-23T03:56:50;14.73;;;9.37;;
18818;SDS011;9537;45.594;9.294;2023-03-23T03:57:52;14.70;;;10.03;;
18818;SDS011;9537;45.594;9.294;2023-03-23T03:58:55;15.47;;;9.90;;
18818;SDS011;9537;45.594;9.294;2023-03-23T03:59:56;13.43;;;9.30;;
18818;SDS011;9537;45.594;9.294;2023-03-23T04:00:58;14.87;;;9.57;;
18818;SDS011;9537;45.594;9.294;2023-03-23T04:01:59;16.03;;;10.37;;
18818;SDS011;9537;45.594;9.294;2023-03-23T04:03:01;17.70;;;9.67;;
18818;SDS011;9537;45.594;9.294;2023-03-23T04:04:02;14.33;;;10.03;;
18818;SDS011;9537;45.594;9.294;2023-03-23T04:05:07;16.27;;;10.83;;
18818;SDS011;9537;45.594;9.294;2023-03-23T04:06:11;13.53;;;9.70;;
18818;SDS011;9537;45.594;9.294;2023-03-23T04:07:13;15.67;;;10.37;;
18818;SDS011;9537;45.594;9.294;2023-03-23T04:08:16;15.17;;;10.00;;
18818;SDS011;9537;45.594;9.294;2023-03-23T04:09:19;14.67;;;9.53;;
18818;SDS011;9537;45.594;9.294;2023-03-23T04:10:20;16.03;;;9.87;;
18818;SDS011;9537;45.594;9.294;2023-03-23T04:11:22;14.93;;;9.50;;
18818;SDS011;9537;45.594;9.294;2023-03-23T04:12:23;14.17;;;9.00;;
18818;SDS011;9537;45.594;9.294;2023-03-23T04:13:25;14.80;;;10.50;;
18818;SDS011;9537;45.594;9.294;2023-03-23T04:14:27;17.30;;;10.20;;
18818;SDS011;9537;45.594;9.294;2023-03-23T04:15:28;14.40;;;9.90;;
18818;SDS011;9537;45.594;9.294;2023-03-23T04:16:30;17.47;;;10.80;;
18818;SDS011;9537;45.594;9.294;2023-03-23T04:17:34;13.27;;;8.97;;
18818;SDS011;9537;45.594;9.294;2023-03-23T04:18:38;14.00;;;9.67;;
18818;SDS011;9537;45.594;9.294;2023-03-23T04:19:39;14.53;;;9.30;;
18818;SDS011;9537;45.594;9.294;2023-03-23T04:20:41;16.33;;;9.83;;
18818;SDS011;9537;45.594;9.294;2023-03-23T04:21:43;15.90;;;10.57;;
18818;SDS011;9537;45.594;9.294;2023-03-23T04:22:49;14.43;;;9.87;;
18818;SDS011;9537;45.594;9.294;2023-03-23T04:23:50;15.90;;;9.00;;
18818;SDS011;9537;45.594;9.294;2023-03-23T04:24:54;14.50;;;9.90;;
18818;SDS011;9537;45.594;9.294;2023-03-23T04:25:55;13.90;;;8.67;;
18818;SDS011;9537;45.594;9.294;2023-03-23T04:26:58;13.07;;;9.57;;
18818;SDS011;9537;45.594;9.294;2023-03-23T04:27:59;12.30;;;8.70;;
18818;SDS011;9537;45.594;9.294;2023-03-23T04:29:01;16.20;;;9.20;;
18818;SDS011;9537;45.594;9.294;2023-03-23T04:30:03;14.53;;;9.53;;
18818;SDS011;9537;45.594;9.294;2023-03-23T04:31:06;11.77;;;8.90;;
18818;SDS011;9537;45.594;9.294;2023-03-23T04:32:09;13.50;;;9.57;;
18818;SDS011;9537;45.594;9.294;2023-03-23T04:33:11;12.83;;;9.40;;
18818;SDS011;9537;45.594;9.294;2023-03-23T04:34:14;11.47;;;8.50;;
18818;SDS011;9537;45.594;9.294;2023-03-23T04:35:16;13.43;;;9.87;;
18818;SDS011;9537;45.594;9.294;2023-03-23T04:36:19;12.83;;;9.40;;
18818;SDS011;9537;45.594;9.294;2023-03-23T04:37:24;13.13;;;9.30;;
18818;SDS011;9537;45.594;9.294;2023-03-23T04:38:29;11.90;;;9.50;;
18818;SDS011;9537;45.594;9.294;2023-03-23T04:39:32;13.50;;;9.80;;
18818;SDS011;9537;45.594;9.294;2023-03-23T04:40:35;15.73;;;9.33;;
18818;SDS011;9537;45.594;9.294;2023-03-23T04:41:37;12.97;;;9.10;;
18818;SDS011;9537;45.594;9.294;2023-03-23T04:42:40;15.47;;;8.77;;
18818;SDS011;9537;45.594;9.294;2023-03-23T04:43:45;12.43;;;8.70;;
18818;SDS011;9537;45.594;9.294;2023-03-23T04:44:52;12.83;;;8.93;;
18818;SDS011;9537;45.594;9.294;2023-03-23T04:45:55;11.43;;;8.20;;
18818;SDS011;9537;45.594;9.294;2023-03-23T04:47:00;13.93;;;8.50;;
18818;SDS011;9537;45.594;9.294;2023-03-23T04:48:01;12.93;;;8.73;;
18818;SDS011;9537;45.594;9.294;2023-03-23T04:49:05;11.73;;;8.87;;
18818;SDS011;9537;45.594;9.294;2023-03-23T04:50:07;13.37;;;8.67;;
18818;SDS011;9537;45.594;9.294;2023-03-23T04:51:10;13.87;;;7.90;;
18818;SDS011;9537;45.594;9.294;2023-03-23T04:52:12;11.97;;;7.90;;
18818;SDS011;9537;45.594;9.294;2023-03-23T04:53:16;13.23;;;8.03;;
18818;SDS011;9537;45.594;9.294;2023-03-23T04:54:18;14.20;;;7.73;;
18818;SDS011;9537;45.594;9.294;2023-03-23T04:55:20;10.50;;;7.63;;
18818;SDS011;9537;45.594;9.294;2023-03-23T04:56:21;12.77;;;8.20;;
18818;SDS011;9537;45.594;9.294;2023-03-23T04:57:23;12.00;;;7.93;;
18818;SDS011;9537;45.594;9.294;2023-03-23T04:58:26;13.50;;;7.97;;
18818;SDS011;9537;45.594;9.294;2023-03-23T04:59:29;11.33;;;8.17;;
18818;SDS011;9537;45.594;9.294;2023-03-23T05:00:31;13.67;;;7.90;;
18818;SDS011;9537;45.594;9.294;2023-03-23T05:01:33;15.37;;;8.40;;
18818;SDS011;9537;45.594;9.294;2023-03-23T05:02:36;12.10;;;8.00;;
18818;SDS011;9537;45.594;9.294;2023-03-23T05:03:39;10.37;;;7.27;;
18818;SDS011;9537;45.594;9.294;2023-03-23T05:04:41;11.47;;;8.60;;
18818;SDS011;9537;45.594;9.294;2023-03-23T05:05:43;9.83;;;7.80;;
18818;SDS011;9537;45.594;9.294;2023-03-23T05:06:47;9.90;;;7.63;;
18818;SDS011;9537;45.594;9.294;2023-03-23T05:07:49;10.23;;;8.17;;
18818;SDS011;9537;45.594;9.294;2023-03-23T05:08:52;11.33;;;8.57;;
18818;SDS011;9537;45.594;9.294;2023-03-23T05:09:54;11.80;;;7.67;;
18818;SDS011;9537;45.594;9.294;2023-03-23T05:10:55;11.37;;;8.07;;
18818;SDS011;9537;45.594;9.294;2023-03-23T05:12:02;12.43;;;7.67;;
18818;SDS011;9537;45.594;9.294;2023-03-23T05:13:04;12.30;;;8.10;;
18818;SDS011;9537;45.594;9.294;2023-03-23T05:14:06;12.00;;;8.33;;
18818;SDS011;9537;45.594;9.294;2023-03-23T05:15:08;13.57;;;7.90;;
18818;SDS011;9537;45.594;9.294;2023-03-23T05:16:11;11.67;;;7.47;;
18818;SDS011;9537;45.594;9.294;2023-03-23T05:17:12;12.97;;;7.93;;
18818;SDS011;9537;45.594;9.294;2023-03-23T05:18:17;14.83;;;8.27;;
18818;SDS011;9537;45.594;9.294;2023-03-23T05:19:20;12.53;;;7.87;;
18818;SDS011;9537;45.594;9.294;2023-03-23T05:20:22;12.43;;;8.10;;
18818;SDS011;9537;45.594;9.294;2023-03-23T05:21:23;13.03;;;7.60;;
18818;SDS011;9537;45.594;9.294;2023-03-23T05:22:28;13.40;;;8.30;;
18818;SDS011;9537;45.594;9.294;2023-03-23T05:23:32;10.93;;;7.13;;
18818;SDS011;9537;45.594;9.294;2023-03-23T05:24:37;14.47;;;7.60;;
18818;SDS011;9537;45.594;9.294;2023-03-23T05:25:38;13.23;;;8.17;;
18818;SDS011;9537;45.594;9.294;2023-03-23T05:26:41;12.50;;;8.30;;
18818;SDS011;9537;45.594;9.294;2023-03-23T05:27:42;12.97;;;7.90;;
18818;SDS011;9537;45.594;9.294;2023-03-23T05:28:49;9.10;;;7.30;;
18818;SDS011;9537;45.594;9.294;2023-03-23T05:29:52;13.00;;;7.67;;
18818;SDS011;9537;45.594;9.294;2023-03-23T05:30:54;13.00;;;7.40;;
18818;SDS011;9537;45.594;9.294;2023-03-23T05:31:56;11.30;;;6.97;;
18818;SDS011;9537;45.594;9.294;2023-03-23T05:33:00;11.73;;;7.87;;
18818;SDS011;9537;45.594;9.294;2023-03-23T05:34:02;11.03;;;7.17;;
18818;SDS011;9537;45.594;9.294;2023-03-23T05:35:05;10.60;;;7.20;;
18818;SDS011;9537;45.594;9.294;2023-03-23T05:36:06;12.90;;;8.10;;
18818;SDS011;9537;45.594;9.294;2023-03-23T05:37:11;11.10;;;7.53;;
18818;SDS011;9537;45.594;9.294;2023-03-23T05:38:12;11.30;;;7.67;;
18818;SDS011;9537;45.594;9.294;2023-03-23T05:39:14;9.93;;;7.60;;
18818;SDS011;9537;45.594;9.294;2023-03-23T05:40:18;11.60;;;7.50;;
18818;SDS011;9537;45.594;9.294;2023-03-23T05:41:20;9.73;;;7.13;;
18818;SDS011;9537;45.594;9.294;2023-03-23T05:42:22;13.17;;;7.93;;
18818;SDS011;9537;45.594;9.294;2023-03-23T05:43:24;11.70;;;7.87;;
18818;SDS011;9537;45.594;9.294;2023-03-23T05:44:25;11.40;;;7.10;;
18818;SDS011;9537;45.594;9.294;2023-03-23T05:45:27;16.00;;;8.17;;
18818;SDS011;9537;45.594;9.294;2023-03-23T05:46:28;11.00;;;7.27;;
18818;SDS011;9537;45.594;9.294;2023-03-23T05:47:31;12.10;;;7.20;;
18818;SDS011;9537;45.594;9.294;2023-03-23T05:48:32;12.40;;;8.10;;
18818;SDS011;9537;45.594;9.294;2023-03-23T05:49:34;12.53;;;7.90;;
18818;SDS011;9537;45.594;9.294;2023-03-23T05:50:36;13.97;;;7.37;;
18818;SDS011;9537;45.594;9.294;2023-03-23T05:51:39;12.87;;;7.97;;
18818;SDS011;9537;45.594;9.294;2023-03-23T05:52:41;11.23;;;8.00;;
18818;SDS011;9537;45.594;9.294;2023-03-23T05:53:42;12.33;;;6.90;;
18818;SDS011;9537;45.594;9.294;2023-03-23T05:54:44;9.43;;;6.90;;
18818;SDS011;9537;45.594;9.294;2023-03-23T05:55:46;10.97;;;7.70;;
18818;SDS011;9537;45.594;9.294;2023-03-23T05:56:48;11.00;;;7.40;;
18818;SDS011;9537;45.594;9.294;2023-03-23T05:57:49;14.53;;;7.37;;
18818;SDS011;9537;45.594;9.294;2023-03-23T05:58:51;13.00;;;7.27;;
18818;SDS011;9537;45.594;9.294;2023-03-23T05:59:53;12.73;;;7.10;;
18818;SDS011;9537;45.594;9.294;2023-03-23T06:00:56;10.70;;;7.10;;
18818;SDS011;9537;45.594;9.294;2023-03-23T06:01:58;11.50;;;7.23;;
18818;SDS011;9537;45.594;9.294;2023-03-23T06:03:00;10.60;;;7.50;;
18818;SDS011;9537;45.594;9.294;2023-03-23T06:04:01;11.60;;;8.03;;
18818;SDS011;9537;45.594;9.294;2023-03-23T06:05:04;11.97;;;7.40;;
18818;SDS011;9537;45.594;9.294;2023-03-23T06:06:05;10.90;;;7.10;;
18818;SDS011;9537;45.594;9.294;2023-03-23T06:07:08;12.67;;;7.07;;
18818;SDS011;9537;45.594;9.294;2023-03-23T06:08:12;11.67;;;7.87;;
18818;SDS011;9537;45.594;9.294;2023-03-23T06:09:15;13.57;;;7.50;;
18818;SDS011;9537;45.594;9.294;2023-03-23T06:10:17;9.43;;;7.53;;
18818;SDS011;9537;45.594;9.294;2023-03-23T06:11:21;11.67;;;7.20;;
18818;SDS011;9537;45.594;9.294;2023-03-23T06:12:22;13.03;;;6.90;;
18818;SDS011;9537;45.594;9.294;2023-03-23T06:13:24;8.87;;;6.60;;
18818;SDS011;9537;45.594;9.294;2023-03-23T06:14:26;12.27;;;7.27;;
18818;SDS011;9537;45.594;9.294;2023-03-23T06:15:28;11.87;;;7.20;;
18818;SDS011;9537;45.594;9.294;2023-03-23T06:16:31;10.30;;;7.03;;
18818;SDS011;9537;45.594;9.294;2023-03-23T06:17:34;10.60;;;7.47;;
18818;SDS011;9537;45.594;9.294;2023-03-23T06:18:36;10.10;;;7.50;;
18818;SDS011;9537;45.594;9.294;2023-03-23T06:19:40;10.10;;;7.50;;
18818;SDS011;9537;45.594;9.294;2023-03-23T06:20:42;9.73;;;6.80;;
18818;SDS011;9537;45.594;9.294;2023-03-23T06:21:45;16.03;;;7.60;;
18818;SDS011;9537;45.594;9.294;2023-03-23T06:22:46;10.67;;;7.00;;
18818;SDS011;9537;45.594;9.294;2023-03-23T06:23:48;15.07;;;7.13;;
18818;SDS011;9537;45.594;9.294;2023-03-23T06:24:50;12.97;;;7.93;;
18818;SDS011;9537;45.594;9.294;2023-03-23T06:25:53;12.63;;;7.20;;
18818;SDS011;9537;45.594;9.294;2023-03-23T06:26:56;13.90;;;7.03;;